Time;durP1;ratioP1;P1;durP2;ratioP2;P2;SDS_P1;SDS_P2;PMS_P1;PMS_P2;Temp;Humidity;BMP_temperature;BMP_pressure;BME280_temperature;BME280_humidity;BME280_pressure;Samples;Min_cycle;Max_cycle;Signal;HPM_P1;HPM_P2
2023/06/28 00:01:36;;;;;;;7.70;6.50;;;;;;;15.04;100.00;101543.78;5013218;28;20519;-45
2023/06/28 00:04:05;;;;;;;7.67;6.90;;;;;;;15.01;100.00;101551.41;5013366;28;20476;-47
2023/06/28 00:06:34;;;;;;;7.50;6.90;;;;;;;14.95;100.00;101551.22;5013189;28;20532;-47
2023/06/28 00:09:02;;;;;;;10.37;7.40;;;;;;;14.91;100.00;101555.34;5012801;28;20552;-45
2023/06/28 00:11:30;;;;;;;7.77;7.07;;;;;;;14.85;100.00;101553.47;5013153;28;20437;-48
2023/06/28 00:13:58;;;;;;;8.00;7.60;;;;;;;14.80;100.00;101550.56;5013017;28;20516;-48
2023/06/28 00:16:25;;;;;;;7.53;7.03;;;;;;;14.79;100.00;101551.59;5013059;28;20507;-45
2023/06/28 00:18:53;;;;;;;7.50;7.03;;;;;;;14.75;100.00;101553.06;5012460;28;20515;-47
2023/06/28 00:21:22;;;;;;;10.87;8.40;;;;;;;14.73;100.00;101559.63;5013017;28;20433;-42
2023/06/28 00:23:51;;;;;;;8.87;7.40;;;;;;;14.67;100.00;101555.09;5012932;28;21181;-44
2023/06/28 00:26:19;;;;;;;8.40;7.60;;;;;;;14.64;100.00;101561.69;5012851;28;20460;-51
2023/06/28 00:28:47;;;;;;;9.57;8.63;;;;;;;14.59;100.00;101553.44;5012501;28;20959;-46
2023/06/28 00:31:14;;;;;;;9.07;8.37;;;;;;;14.59;100.00;101553.44;5012719;28;20515;-48
2023/06/28 00:33:42;;;;;;;9.80;8.20;;;;;;;14.58;100.00;101554.44;5012598;28;20452;-47
2023/06/28 00:36:10;;;;;;;7.80;7.30;;;;;;;14.56;100.00;101561.06;5012778;28;20523;-44
2023/06/28 00:38:38;;;;;;;8.60;7.70;;;;;;;14.55;100.00;101551.34;5012485;28;20429;-44
2023/06/28 00:41:07;;;;;;;8.23;7.53;;;;;;;14.52;100.00;101554.41;5012714;28;20492;-45
2023/06/28 00:43:34;;;;;;;8.40;7.70;;;;;;;14.49;100.00;101552.13;5012494;28;20516;-44
2023/06/28 00:46:02;;;;;;;8.47;7.90;;;;;;;14.46;100.00;101555.22;5012455;28;21030;-45
2023/06/28 00:48:30;;;;;;;9.07;8.03;;;;;;;14.43;100.00;101552.94;5012401;28;20507;-49
2023/06/28 00:50:58;;;;;;;8.67;7.87;;;;;;;14.38;100.00;101551.72;5012563;28;20481;-42
2023/06/28 00:53:26;;;;;;;9.20;8.40;;;;;;;14.35;100.00;101553.97;5012247;28;20509;-46
2023/06/28 00:55:56;;;;;;;8.47;7.80;;;;;;;14.34;100.00;101553.13;5012332;28;20468;-44
2023/06/28 00:58:25;;;;;;;10.77;8.97;;;;;;;14.32;100.00;101551.66;5011350;28;20437;-43
2023/06/28 01:00:53;;;;;;;12.70;8.77;;;;;;;14.31;100.00;101555.38;5012497;28;20479;-44
2023/06/28 01:03:21;;;;;;;9.60;8.53;;;;;;;14.29;100.00;101555.56;5012295;28;20799;-44
2023/06/28 01:05:51;;;;;;;10.17;9.07;;;;;;;14.27;100.00;101557.66;5012387;28;20797;-45
2023/06/28 01:08:20;;;;;;;9.57;8.93;;;;;;;14.25;100.00;101545.44;5012368;28;20429;-44
2023/06/28 01:10:49;;;;;;;8.50;8.00;;;;;;;14.22;100.00;101553.88;4992193;28;20606;-43
2023/06/28 01:13:18;;;;;;;9.57;8.90;;;;;;;14.20;100.00;101555.94;4992581;28;20437;-44
2023/06/28 01:15:47;;;;;;;10.40;9.43;;;;;;;14.17;100.00;101564.41;4992595;28;20505;-43
2023/06/28 01:18:19;;;;;;;10.70;9.83;;;;;;;14.16;100.00;101562.72;4992444;28;20940;-45
2023/06/28 01:20:47;;;;;;;10.53;9.73;;;;;;;14.16;100.00;101568.09;4999000;28;20442;-44
2023/06/28 01:23:17;;;;;;;9.50;8.77;;;;;;;14.14;100.00;101560.25;5011644;28;21001;-45
2023/06/28 01:25:45;;;;;;;9.60;9.07;;;;;;;14.14;100.00;101570.16;5011989;28;20528;-48
2023/06/28 01:28:13;;;;;;;9.33;8.57;;;;;;;14.15;100.00;101566.47;5011879;28;20532;-42
2023/06/28 01:30:41;;;;;;;9.40;8.67;;;;;;;14.12;100.00;101553.44;5011445;28;20530;-43
2023/06/28 01:33:09;;;;;;;9.33;8.57;;;;;;;14.12;100.00;101562.31;5011828;28;20650;-45
2023/06/28 01:35:37;;;;;;;9.23;8.73;;;;;;;14.11;100.00;101562.50;5011845;28;20563;-48
2023/06/28 01:38:06;;;;;;;10.67;9.73;;;;;;;14.08;100.00;101563.75;5011751;28;21003;-47
2023/06/28 01:40:36;;;;;;;9.00;8.53;;;;;;;14.08;100.00;101563.75;5011405;28;20465;-45
2023/06/28 01:43:06;;;;;;;10.47;9.50;;;;;;;14.05;100.00;101572.19;5011827;28;20520;-47
2023/06/28 01:45:34;;;;;;;10.50;9.47;;;;;;;14.07;100.00;101563.94;5011992;28;20436;-44
2023/06/28 01:48:02;;;;;;;9.50;8.90;;;;;;;14.05;100.00;101566.81;5011881;28;20479;-47
2023/06/28 01:50:31;;;;;;;10.50;9.80;;;;;;;14.04;100.00;101562.47;5011151;28;20469;-47
2023/06/28 01:53:00;;;;;;;9.63;8.93;;;;;;;14.05;100.00;101577.56;5011777;28;20425;-44
2023/06/28 01:55:28;;;;;;;10.60;9.90;;;;;;;14.05;100.00;101577.56;5011676;28;20476;-44
2023/06/28 01:57:57;;;;;;;10.53;9.53;;;;;;;14.02;100.00;101571.75;5011764;28;20499;-49
2023/06/28 02:00:25;;;;;;;10.67;9.80;;;;;;;14.03;100.00;101570.72;5011185;28;20557;-44
2023/06/28 02:02:53;;;;;;;9.33;8.90;;;;;;;14.02;100.00;101566.38;5011369;28;20475;-48
2023/06/28 02:05:22;;;;;;;11.00;10.00;;;;;;;13.99;100.00;101570.31;5011896;28;20432;-46
2023/06/28 02:07:49;;;;;;;11.33;10.60;;;;;;;13.94;100.00;101572.75;5011710;28;20644;-45
2023/06/28 02:10:18;;;;;;;10.63;9.70;;;;;;;13.91;100.00;101565.09;5012783;28;20465;-48
2023/06/28 02:12:45;;;;;;;10.03;9.47;;;;;;;13.90;100.00;101567.97;5015244;28;20796;-46
2023/06/28 02:15:15;;;;;;;10.37;9.50;;;;;;;13.90;100.00;101570.66;5015309;28;20469;-44
2023/06/28 02:17:43;;;;;;;10.83;9.87;;;;;;;13.88;100.00;101562.81;5015082;28;20508;-44
2023/06/28 02:20:12;;;;;;;10.10;9.40;;;;;;;13.88;100.00;101554.78;5014756;28;20476;-48
2023/06/28 02:22:40;;;;;;;11.87;11.20;;;;;;;13.90;100.00;101573.34;5014961;28;20588;-48
2023/06/28 02:25:08;;;;;;;11.50;10.70;;;;;;;13.90;100.00;101565.28;4996164;28;20438;-43
2023/06/28 02:27:36;;;;;;;11.17;10.40;;;;;;;13.92;100.00;101579.34;4995562;28;20438;-45
2023/06/28 02:30:04;;;;;;;11.73;10.67;;;;;;;13.91;100.00;101575.00;5008798;28;20543;-43
2023/06/28 02:32:33;;;;;;;12.47;11.13;;;;;;;13.90;100.00;101570.66;5015034;28;20424;-47
2023/06/28 02:35:01;;;;;;;11.07;10.07;;;;;;;13.89;100.00;101575.19;5014925;28;20532;-46
2023/06/28 02:37:29;;;;;;;11.87;10.77;;;;;;;13.91;100.00;101572.31;5015012;28;20906;-45
2023/06/28 02:39:58;;;;;;;12.17;11.23;;;;;;;13.93;100.00;101580.97;5014515;28;20519;-45
2023/06/28 02:42:25;;;;;;;11.43;10.87;;;;;;;13.92;100.00;101585.50;5014528;28;20484;-47
2023/06/28 02:44:53;;;;;;;11.83;11.00;;;;;;;13.91;100.00;101583.88;5014757;28;20931;-48
2023/06/28 02:47:21;;;;;;;12.40;11.50;;;;;;;13.95;100.00;101581.63;5014967;28;20433;-45
2023/06/28 02:49:50;;;;;;;12.43;11.50;;;;;;;13.95;100.00;101587.00;5014139;28;20465;-43
2023/06/28 02:52:18;;;;;;;12.60;11.73;;;;;;;13.96;100.00;101581.41;5014766;28;20910;-46
2023/06/28 02:54:45;;;;;;;12.57;11.70;;;;;;;13.97;100.00;101575.03;5014674;28;20860;-48
2023/06/28 02:57:13;;;;;;;11.60;10.90;;;;;;;14.01;100.00;101584.31;5014405;28;20516;-45
2023/06/28 02:59:41;;;;;;;11.90;11.30;;;;;;;14.07;100.00;101578.16;5013736;28;20480;-48
2023/06/28 03:02:11;;;;;;;12.10;11.40;;;;;;;14.12;100.00;101589.16;5014346;28;20464;-43
2023/06/28 03:04:39;;;;;;;12.07;11.17;;;;;;;14.11;100.00;101583.97;5014506;28;20437;-43
2023/06/28 03:07:13;;;;;;;12.53;11.70;;;;;;;14.16;100.00;101566.25;5014494;28;20440;-46
2023/06/28 03:09:41;;;;;;;12.90;12.00;;;;;;;14.21;100.00;101582.59;5013397;28;20477;-47
2023/06/28 03:12:10;;;;;;;12.90;11.90;;;;;;;14.28;100.00;101586.09;5014052;28;20441;-45
2023/06/28 03:14:38;;;;;;;12.40;11.43;;;;;;;14.34;100.00;101571.09;5014427;28;20433;-48
2023/06/28 03:17:07;;;;;;;13.80;11.77;;;;;;;14.42;100.00;101581.66;5014220;28;20481;-45
2023/06/28 03:19:35;;;;;;;13.07;12.10;;;;;;;14.45;100.00;101581.25;5013688;28;20823;-50
2023/06/28 03:22:03;;;;;;;11.90;11.30;;;;;;;14.52;100.00;101574.03;5013718;28;20437;-49
2023/06/28 03:24:32;;;;;;;12.70;11.90;;;;;;;14.59;100.00;101577.59;5014154;28;20441;-45
2023/06/28 03:26:59;;;;;;;13.77;12.50;;;;;;;14.71;100.00;101583.19;5014039;28;20487;-46
2023/06/28 03:29:27;;;;;;;12.77;11.70;;;;;;;15.11;100.00;101578.72;5013554;28;20493;-46
2023/06/28 03:31:56;;;;;;;13.80;12.83;;;;;;;15.90;100.00;101574.09;5013761;28;20495;-44
2023/06/28 03:34:23;;;;;;;13.87;13.10;;;;;;;16.55;100.00;101578.41;5013890;28;20471;-45
2023/06/28 03:36:51;;;;;;;12.40;11.80;;;;;;;16.74;100.00;101571.25;5013633;28;20477;-44
2023/06/28 03:39:22;;;;;;;12.43;11.70;;;;;;;16.68;100.00;101578.34;5013247;28;20974;-45
2023/06/28 03:41:51;;;;;;;12.90;11.80;;;;;;;16.65;100.00;101576.09;5013591;28;20440;-46
2023/06/28 03:44:18;;;;;;;12.00;11.10;;;;;;;16.62;100.00;101570.28;5013854;28;20845;-46
2023/06/28 03:46:46;;;;;;;12.00;11.20;;;;;;;16.54;100.00;101577.59;5013670;28;20429;-47
2023/06/28 03:49:14;;;;;;;11.40;10.80;;;;;;;16.54;100.00;101571.38;5012959;28;20460;-48
2023/06/28 03:51:41;;;;;;;11.90;11.03;;;;;;;16.57;100.00;101562.88;5013320;28;20439;-43
2023/06/28 03:54:09;;;;;;;11.20;10.50;;;;;;;16.57;100.00;101566.41;5013736;28;20437;-48
2023/06/28 03:56:37;;;;;;;12.20;10.20;;;;;;;16.58;100.00;101565.34;5013524;28;20472;-45
2023/06/28 03:59:06;;;;;;;12.53;11.63;;;;;;;16.62;100.00;101560.34;5013127;28;20492;-46
2023/06/28 04:01:34;;;;;;;11.67;10.77;;;;;;;16.68;100.00;101564.88;5013230;28;20437;-47
2023/06/28 04:04:01;;;;;;;11.60;10.80;;;;;;;16.70;100.00;101560.09;5013278;28;20871;-47
2023/06/28 04:06:29;;;;;;;11.40;10.53;;;;;;;16.81;100.00;101562.13;5013404;28;20437;-49
2023/06/28 04:08:57;;;;;;;10.77;9.87;;;;;;;16.84;100.00;101558.16;5012821;28;20460;-44
2023/06/28 04:11:25;;;;;;;10.70;9.87;;;;;;;16.91;100.00;101557.03;5013037;28;20479;-45
2023/06/28 04:13:52;;;;;;;11.23;10.50;;;;;;;17.00;100.00;101568.38;5013126;28;20433;-43
2023/06/28 04:16:21;;;;;;;10.33;9.60;;;;;;;17.06;100.00;101559.41;5013300;28;20495;-45
2023/06/28 04:18:49;;;;;;;11.20;10.10;;;;;;;17.25;100.00;101571.09;5013007;28;20538;-45
2023/06/28 04:21:17;;;;;;;11.00;10.33;;;;;;;17.36;100.00;101563.09;5012955;28;20433;-44
2023/06/28 04:23:44;;;;;;;10.20;9.43;;;;;;;17.37;100.00;101566.63;5012777;28;20479;-44
2023/06/28 04:26:12;;;;;;;10.60;9.63;;;;;;;17.45;100.00;101567.19;5012986;28;20491;-45
2023/06/28 04:28:40;;;;;;;11.40;10.50;;;;;;;17.57;100.00;101559.22;5012275;28;20488;-48
2023/06/28 04:31:07;;;;;;;10.77;9.83;;;;;;;17.95;100.00;101562.53;5012722;28;20457;-45
2023/06/28 04:33:37;;;;;;;13.10;12.20;;;;;;;19.32;100.00;101557.03;5012345;28;20815;-48
2023/06/28 04:36:05;;;;;;;11.03;10.20;;;;;;;20.59;100.00;101551.69;5012982;28;20432;-45
2023/06/28 04:38:33;;;;;;;8.97;8.37;;;;;;;20.53;100.00;101541.81;5012184;28;20472;-46
2023/06/28 04:41:00;;;;;;;9.57;8.87;;;;;;;21.85;100.00;101546.41;5012523;28;20511;-43
2023/06/28 04:43:38;;;;;;;10.47;8.90;;;;;;;23.13;100.00;101545.66;5012332;28;20468;-43
2023/06/28 04:46:11;;;;;;;8.00;7.40;;;;;;;24.35;100.00;101536.25;5012596;28;20425;-43
2023/06/28 04:48:43;;;;;;;7.37;6.83;;;;;;;25.24;100.00;101525.72;5012461;28;20424;-46
2023/06/28 04:51:11;;;;;;;7.60;7.07;;;;;;;26.09;100.00;101532.06;5012560;28;20445;-45
2023/06/28 04:53:39;;;;;;;6.97;6.30;;;;;;;26.75;95.47;101531.69;5012220;28;20436;-47
2023/06/28 04:56:06;;;;;;;7.97;6.93;;;;;;;27.17;77.73;101531.09;5012616;28;20428;-44
2023/06/28 04:58:34;;;;;;;7.30;6.60;;;;;;;27.65;81.92;101532.81;5012036;28;20476;-41
2023/06/28 05:01:06;;;;;;;7.77;7.00;;;;;;;28.07;75.33;101539.47;5012455;28;20966;-43
2023/06/28 05:03:34;;;;;;;7.63;7.03;;;;;;;28.49;70.20;101539.44;5012039;28;20433;-45
2023/06/28 05:06:06;;;;;;;6.97;6.47;;;;;;;29.04;66.38;101527.59;5012252;28;20455;-42
2023/06/28 05:08:34;;;;;;;6.93;6.43;;;;;;;29.31;59.91;101535.09;5011643;28;20428;-44
2023/06/28 05:11:02;;;;;;;8.80;5.50;;;;;;;29.71;64.14;101533.53;5012240;28;20225;-42
2023/06/28 05:13:30;;;;;;;7.07;6.47;;;;;;;29.91;58.95;101532.31;5012124;28;20201;-41
2023/06/28 05:15:58;;;;;;;8.60;5.70;;;;;;;30.17;60.65;101533.38;5012111;28;20251;-43
2023/06/28 05:18:26;;;;;;;8.30;5.50;;;;;;;30.35;54.22;101529.69;5011561;28;20308;-46
2023/06/28 05:20:54;;;;;;;5.30;5.00;;;;;;;30.51;53.03;101530.19;5011556;28;20237;-40
2023/06/28 05:23:23;;;;;;;6.80;5.50;;;;;;;30.51;55.35;101525.50;5011602;28;20197;-43
2023/06/28 05:25:51;;;;;;;7.60;5.60;;;;;;;30.54;50.81;101526.81;5012266;28;20248;-44
2023/06/28 05:28:19;;;;;;;6.22;5.18;;;;;;;30.66;51.75;101529.81;5011952;28;20292;-44
2023/06/28 05:30:48;;;;;;;5.53;5.03;;;;;;;30.55;47.60;101526.50;5011661;28;20279;-44
2023/06/28 05:33:15;;;;;;;7.10;5.20;;;;;;;30.25;46.24;101540.13;5011652;28;20281;-43
2023/06/28 05:35:43;;;;;;;5.40;4.67;;;;;;;30.14;51.45;101534.81;5012238;28;20253;-41
2023/06/28 05:38:11;;;;;;;11.00;5.20;;;;;;;30.20;46.67;101538.28;5011886;28;20304;-43
2023/06/28 05:40:40;;;;;;;6.60;5.10;;;;;;;29.95;47.69;101536.91;5011404;28;20674;-41
2023/06/28 05:43:08;;;;;;;4.77;4.23;;;;;;;30.18;48.91;101537.78;5011775;28;20251;-44
2023/06/28 05:45:36;;;;;;;5.43;4.57;;;;;;;29.44;48.70;101534.31;5015944;28;20690;-47
2023/06/28 05:48:04;;;;;;;5.03;4.50;;;;;;;29.07;49.76;101537.16;5015620;28;20197;-46
2023/06/28 05:50:32;;;;;;;4.90;4.13;;;;;;;29.28;49.28;101546.69;5015399;28;20770;-45
2023/06/28 05:53:00;;;;;;;5.87;4.23;;;;;;;29.38;50.48;101537.47;5015491;28;20197;-44
2023/06/28 05:55:28;;;;;;;5.33;4.53;;;;;;;29.40;50.25;101547.03;5015778;28;20194;-44
2023/06/28 05:57:57;;;;;;;6.32;4.22;;;;;;;29.24;49.68;101542.91;5015619;28;20214;-44
2023/06/28 06:00:24;;;;;;;5.05;4.15;;;;;;;28.64;48.84;101546.63;5015149;28;20745;-45
2023/06/28 06:02:52;;;;;;;4.77;4.33;;;;;;;28.17;51.38;101550.28;5015416;28;20599;-44
2023/06/28 06:05:20;;;;;;;4.83;4.37;;;;;;;27.64;51.21;101546.78;5015337;28;20198;-44
2023/06/28 06:07:48;;;;;;;6.03;3.87;;;;;;;28.89;50.98;101554.47;5015352;28;20193;-48
2023/06/28 06:10:15;;;;;;;4.87;4.47;;;;;;;28.16;50.27;101554.97;5014778;28;20308;-42
2023/06/28 06:12:43;;;;;;;5.90;4.57;;;;;;;27.84;51.17;101552.84;5015113;28;20233;-45
2023/06/28 06:15:13;;;;;;;5.47;4.13;;;;;;;28.53;50.72;101559.66;5015215;28;20202;-44
2023/06/28 06:17:41;;;;;;;6.07;4.50;;;;;;;27.25;52.92;101560.56;5015197;28;20256;-44
2023/06/28 06:20:09;;;;;;;5.30;4.17;;;;;;;27.77;51.04;101565.28;5014740;28;20312;-46
2023/06/28 06:22:37;;;;;;;8.63;4.40;;;;;;;27.11;53.58;101562.34;5015126;28;20255;-43
2023/06/28 06:25:05;;;;;;;4.93;4.53;;;;;;;26.07;56.21;101566.25;5015291;28;20202;-44
2023/06/28 06:27:33;;;;;;;12.57;5.00;;;;;;;26.64;58.11;101566.50;5014986;28;20502;-44
2023/06/28 06:30:01;;;;;;;7.27;4.13;;;;;;;26.86;55.58;101561.44;5014538;28;20854;-44
2023/06/28 06:32:30;;;;;;;7.10;4.30;;;;;;;26.11;56.52;101572.75;5014938;28;20197;-44
2023/06/28 06:34:58;;;;;;;6.20;4.83;;;;;;;26.20;57.12;101576.59;5014931;28;20961;-42
2023/06/28 06:37:25;;;;;;;4.70;4.43;;;;;;;25.60;60.57;101572.09;5014953;28;20437;-42
2023/06/28 06:39:54;;;;;;;5.90;4.40;;;;;;;25.62;60.05;101572.66;5014346;28;20499;-43
2023/06/28 06:42:22;;;;;;;8.07;4.97;;;;;;;25.38;61.25;101577.88;5014610;28;20429;-44
2023/06/28 06:44:50;;;;;;;5.03;4.57;;;;;;;25.11;61.80;101582.78;5015013;28;21012;-44
2023/06/28 06:47:17;;;;;;;5.67;4.83;;;;;;;25.01;64.92;101585.50;5014881;28;20494;-43
2023/06/28 06:49:46;;;;;;;4.73;4.20;;;;;;;24.88;62.53;101583.31;5014182;28;21117;-42
2023/06/28 06:52:14;;;;;;;5.53;4.83;;;;;;;25.86;62.47;101582.69;5014397;28;20468;-43
2023/06/28 06:54:42;;;;;;;9.57;5.10;;;;;;;26.11;60.23;101578.22;5014528;28;20436;-46
2023/06/28 06:57:10;;;;;;;8.00;5.30;;;;;;;25.40;61.85;101585.75;5014285;28;20511;-44
2023/06/28 06:59:37;;;;;;;5.97;4.40;;;;;;;25.73;60.55;101583.28;5014191;28;20886;-47
2023/06/28 07:02:05;;;;;;;4.67;4.27;;;;;;;24.17;65.39;101594.81;5014268;28;20433;-49
2023/06/28 07:04:33;;;;;;;5.80;4.90;;;;;;;24.36;66.16;101600.63;5014484;28;20442;-49
2023/06/28 07:07:02;;;;;;;8.63;4.77;;;;;;;24.63;64.08;101592.25;5014341;28;20946;-47
2023/06/28 07:09:31;;;;;;;6.43;4.27;;;;;;;25.57;62.18;101584.41;5013818;28;21028;-47
2023/06/28 07:11:59;;;;;;;5.73;4.47;;;;;;;26.50;56.25;101592.03;5014364;28;20438;-46
2023/06/28 07:14:26;;;;;;;7.03;4.90;;;;;;;26.92;55.28;101592.34;5014347;28;20472;-46
2023/06/28 07:16:54;;;;;;;5.67;4.40;;;;;;;26.18;56.09;101596.03;5014328;28;20950;-49
2023/06/28 07:19:22;;;;;;;5.63;4.27;;;;;;;26.61;54.83;101599.88;5013683;28;20488;-49
2023/06/28 07:21:49;;;;;;;4.30;3.90;;;;;;;26.57;54.92;101595.28;5013768;28;20468;-45
2023/06/28 07:24:19;;;;;;;4.77;4.20;;;;;;;26.97;54.59;101596.97;5014123;28;20240;-46
2023/06/28 07:26:46;;;;;;;4.60;4.20;;;;;;;27.31;53.78;101597.78;5014188;28;20498;-49
2023/06/28 07:29:14;;;;;;;5.10;4.43;;;;;;;27.26;52.96;101598.66;5013496;28;21002;-47
2023/06/28 07:31:42;;;;;;;3.70;3.50;;;;;;;27.81;51.48;101600.03;5014134;28;20248;-45
2023/06/28 07:34:09;;;;;;;5.07;4.57;;;;;;;28.28;50.86;101596.50;5013746;28;20193;-47
2023/06/28 07:36:38;;;;;;;3.97;3.60;;;;;;;27.31;52.76;101606.81;5013970;28;20202;-47
2023/06/28 07:39:06;;;;;;;4.50;4.00;;;;;;;27.30;53.95;101610.66;5013396;28;20465;-44
2023/06/28 07:41:36;;;;;;;4.03;3.77;;;;;;;26.01;54.84;101603.72;5013734;28;20502;-47
2023/06/28 07:44:04;;;;;;;7.07;4.43;;;;;;;25.36;57.24;101606.53;5013810;28;20448;-44
2023/06/28 07:46:32;;;;;;;5.60;4.50;;;;;;;25.16;56.91;101607.34;5013668;28;20433;-44
2023/06/28 07:49:00;;;;;;;5.27;4.10;;;;;;;25.41;56.86;101601.88;5013017;28;20464;-45
2023/06/28 07:51:27;;;;;;;9.10;4.63;;;;;;;25.55;56.24;101594.78;5013649;28;20433;-48
2023/06/28 07:53:55;;;;;;;4.77;3.67;;;;;;;26.07;54.79;101593.56;5013557;28;20433;-47
2023/06/28 07:56:23;;;;;;;4.87;4.23;;;;;;;26.00;55.27;101602.06;5013719;28;20440;-47
2023/06/28 07:58:52;;;;;;;4.73;4.30;;;;;;;26.03;55.82;101600.69;5013010;28;20563;-44
2023/06/28 08:01:19;;;;;;;5.17;4.10;;;;;;;26.16;54.49;101597.41;5013209;28;20856;-45
2023/06/28 08:03:47;;;;;;;3.77;3.40;;;;;;;26.74;52.26;101602.00;5013514;28;20436;-52
2023/06/28 08:06:15;;;;;;;4.97;3.80;;;;;;;26.70;53.15;101598.19;5013303;28;20482;-46
2023/06/28 08:08:42;;;;;;;4.10;3.80;;;;;;;27.11;53.88;101601.50;5011966;28;20962;-45
2023/06/28 08:11:10;;;;;;;4.33;3.87;;;;;;;26.65;50.46;101600.16;5013153;28;20515;-43
2023/06/28 08:13:38;;;;;;;3.63;3.33;;;;;;;25.97;52.95;101604.53;5013066;28;20441;-48
2023/06/28 08:16:07;;;;;;;6.67;3.50;;;;;;;25.62;56.12;101595.34;5013195;28;20597;-46
2023/06/28 08:18:35;;;;;;;4.60;4.20;;;;;;;24.82;59.35;101611.69;5012508;28;20982;-44
2023/06/28 08:21:03;;;;;;;4.73;4.33;;;;;;;25.08;56.57;101605.16;5012985;28;20480;-49
2023/06/28 08:23:30;;;;;;;4.87;4.37;;;;;;;24.81;59.39;101607.31;5012879;28;20440;-42
2023/06/28 08:25:58;;;;;;;8.70;3.87;;;;;;;24.18;61.20;101610.09;5013011;28;20432;-47
2023/06/28 08:28:26;;;;;;;4.20;3.93;;;;;;;24.30;62.74;101609.03;5012399;28;20440;-45
2023/06/28 08:30:54;;;;;;;4.20;3.80;;;;;;;24.58;61.59;101609.41;5012789;28;20950;-44
2023/06/28 08:33:24;;;;;;;4.93;4.00;;;;;;;24.76;61.83;101600.72;5012708;28;20432;-48
2023/06/28 08:35:52;;;;;;;4.87;4.20;;;;;;;24.20;59.92;101613.34;5013046;28;20432;-48
2023/06/28 08:38:19;;;;;;;5.00;4.33;;;;;;;24.68;61.68;101598.53;5012816;28;20432;-47
2023/06/28 08:40:48;;;;;;;4.47;4.07;;;;;;;24.85;60.08;101606.47;5012363;28;20518;-46
2023/06/28 08:43:17;;;;;;;5.37;4.17;;;;;;;25.06;58.12;101601.91;5012760;28;20425;-45
2023/06/28 08:45:45;;;;;;;4.13;3.80;;;;;;;24.93;59.02;101605.97;5012745;28;20432;-46
2023/06/28 08:48:13;;;;;;;4.50;4.20;;;;;;;24.43;59.71;101603.09;5012480;28;20468;-49
2023/06/28 08:50:58;;;;;;;4.20;3.80;;;;;;;24.27;60.41;101601.38;5012349;28;20445;-45
2023/06/28 08:53:29;;;;;;;4.30;3.90;;;;;;;24.36;59.97;101600.63;5012307;28;20428;-48
2023/06/28 08:55:59;;;;;;;4.80;4.07;;;;;;;24.25;60.51;101593.50;5012451;28;20435;-46
2023/06/28 08:58:28;;;;;;;4.83;4.37;;;;;;;24.00;64.32;101599.59;5012225;28;20788;-48
2023/06/28 09:00:57;;;;;;;8.10;4.10;;;;;;;24.06;63.76;101598.56;5012227;28;21008;-44
2023/06/28 09:03:25;;;;;;;4.03;3.83;;;;;;;23.51;68.39;101603.66;5012324;28;20849;-48
2023/06/28 09:05:54;;;;;;;5.50;4.50;;;;;;;24.14;67.38;101594.50;5012502;28;20958;-49
2023/06/28 09:08:23;;;;;;;8.50;4.60;;;;;;;24.92;66.34;101587.13;5011869;28;20432;-46
2023/06/28 09:10:51;;;;;;;6.70;4.67;;;;;;;25.46;61.78;101592.84;5012075;28;20448;-49
2023/06/28 09:13:20;;;;;;;6.37;4.60;;;;;;;25.62;58.48;101580.88;5011825;28;20432;-47
2023/06/28 09:15:48;;;;;;;4.27;3.87;;;;;;;25.80;57.49;101591.19;5012297;28;20439;-47
2023/06/28 09:18:16;;;;;;;4.83;4.43;;;;;;;26.54;54.99;101584.91;5011713;28;20459;-47
2023/06/28 09:20:49;;;;;;;4.90;4.50;;;;;;;26.82;50.71;101587.75;5011406;28;20576;-45
2023/06/28 09:23:24;;;;;;;4.33;4.00;;;;;;;26.84;50.58;101591.03;5004671;28;20429;-46
2023/06/28 09:25:53;;;;;;;7.80;4.57;;;;;;;26.31;54.77;101589.94;5012114;28;20432;-45
2023/06/28 09:28:23;;;;;;;5.20;4.90;;;;;;;25.72;58.76;101600.75;5011979;28;20440;-45
2023/06/28 09:30:53;;;;;;;4.53;4.23;;;;;;;25.78;59.36;101604.31;5011733;28;20519;-44
2023/06/28 09:33:22;;;;;;;5.53;5.03;;;;;;;25.70;58.50;101599.41;5011687;28;20432;-45
2023/06/28 09:35:53;;;;;;;6.27;3.90;;;;;;;25.62;58.08;101597.25;5012251;28;20468;-48
2023/06/28 09:38:22;;;;;;;5.67;5.27;;;;;;;25.57;60.46;101608.16;5012158;28;20433;-48
2023/06/28 09:40:55;;;;;;;4.90;4.50;;;;;;;25.05;58.05;101598.34;5031245;28;20475;-52
2023/06/28 09:43:23;;;;;;;7.70;4.67;;;;;;;24.64;60.64;101613.78;5031303;28;20459;-44
2023/06/28 09:45:54;;;;;;;5.90;4.90;;;;;;;24.65;60.54;101606.41;5031823;28;20779;-48
2023/06/28 09:48:24;;;;;;;5.33;4.10;;;;;;;24.71;61.65;101610.78;5031334;28;20510;-47
2023/06/28 09:50:52;;;;;;;5.00;4.50;;;;;;;25.49;60.14;101606.81;5031670;28;20448;-45
2023/06/28 09:53:21;;;;;;;5.43;4.93;;;;;;;26.18;57.68;101608.88;5031394;28;20432;-44
2023/06/28 09:55:50;;;;;;;4.90;4.33;;;;;;;26.52;52.60;101607.09;5031534;28;20786;-47
2023/06/28 09:58:21;;;;;;;6.37;4.70;;;;;;;26.34;55.15;101607.72;5031394;28;20481;-46
2023/06/28 10:00:50;;;;;;;7.20;3.93;;;;;;;26.75;53.56;101613.78;5031131;28;20831;-43
2023/06/28 10:03:19;;;;;;;4.70;4.30;;;;;;;26.75;51.46;101597.34;5031314;28;20849;-45
2023/06/28 10:05:47;;;;;;;4.30;3.90;;;;;;;26.85;52.39;101602.81;5031474;28;20467;-46
2023/06/28 10:08:16;;;;;;;3.90;3.60;;;;;;;27.55;49.75;101608.81;5031357;28;20436;-50
2023/06/28 10:10:45;;;;;;;4.60;4.20;;;;;;;27.40;49.59;101612.47;5030867;28;20473;-45
2023/06/28 10:13:17;;;;;;;4.73;4.40;;;;;;;27.52;47.74;101609.38;5031257;28;20509;-44
2023/06/28 10:15:54;;;;;;;5.60;5.20;;;;;;;27.50;50.30;101606.13;5031514;28;20439;-43
2023/06/28 10:18:23;;;;;;;4.60;4.30;;;;;;;27.21;49.71;101611.56;5031001;28;20463;-45
2023/06/28 10:20:51;;;;;;;5.00;4.60;;;;;;;27.32;51.74;101604.91;5030954;28;20558;-47
2023/06/28 10:23:18;;;;;;;7.57;5.20;;;;;;;26.52;55.62;101604.34;5030945;28;20489;-44
2023/06/28 10:25:46;;;;;;;5.57;5.10;;;;;;;26.02;57.87;101613.53;5031259;28;20849;-44
2023/06/28 10:28:15;;;;;;;5.97;4.97;;;;;;;25.36;60.00;101606.53;5031176;28;20501;-48
2023/06/28 10:30:43;;;;;;;4.97;4.23;;;;;;;25.20;62.65;101619.38;5031495;28;20580;-48
2023/06/28 10:33:15;;;;;;;4.60;4.10;;;;;;;25.91;59.36;101614.66;5034715;28;20851;-49
2023/06/28 10:35:44;;;;;;;3.97;3.70;;;;;;;26.53;57.61;101605.97;5035205;28;20420;-46
2023/06/28 10:38:13;;;;;;;6.20;4.67;;;;;;;27.11;54.17;101597.94;5034907;28;20432;-45
2023/06/28 10:40:41;;;;;;;4.60;4.20;;;;;;;27.25;54.03;101610.69;5034107;28;20500;-49
2023/06/28 10:43:21;;;;;;;5.40;3.87;;;;;;;27.06;52.98;101611.69;5034495;28;20431;-47
2023/06/28 10:45:51;;;;;;;4.63;4.20;;;;;;;27.45;52.01;101610.53;5034421;28;21115;-50
2023/06/28 10:48:20;;;;;;;4.23;3.87;;;;;;;27.77;50.09;101599.00;5034531;28;20498;-47
2023/06/28 10:50:49;;;;;;;5.23;4.40;;;;;;;27.81;51.38;101605.53;5014552;28;20441;-45
2023/06/28 10:53:21;;;;;;;4.03;3.80;;;;;;;27.01;55.23;101611.72;5014648;28;20507;-50
2023/06/28 10:56:12;;;;;;;4.47;4.07;;;;;;;26.66;56.91;101602.63;5014821;28;20421;-46
2023/06/28 10:58:41;;;;;;;5.70;4.50;;;;;;;26.50;55.28;101605.69;5014440;28;20436;-49
2023/06/28 11:01:09;;;;;;;4.97;3.97;;;;;;;26.63;56.47;101605.09;5014690;28;20864;-47
2023/06/28 11:03:40;;;;;;;4.40;4.10;;;;;;;27.16;54.57;101603.38;5014546;28;20920;-46
2023/06/28 11:06:09;;;;;;;4.07;3.67;;;;;;;27.60;53.65;101609.56;5014708;28;20483;-45
2023/06/28 11:08:40;;;;;;;4.40;4.00;;;;;;;27.86;51.17;101604.66;5013975;28;20479;-47
2023/06/28 11:11:09;;;;;;;3.70;3.50;;;;;;;28.21;50.68;101607.03;5014657;28;20449;-42
2023/06/28 11:13:48;;;;;;;3.60;3.40;;;;;;;28.17;49.79;101596.91;5014187;28;20568;-45
2023/06/28 11:16:21;;;;;;;4.00;3.67;;;;;;;27.98;49.73;101597.69;5014518;28;20528;-48
2023/06/28 11:18:51;;;;;;;4.30;4.00;;;;;;;28.06;47.81;101609.13;5013818;28;20996;-43
2023/06/28 11:21:24;;;;;;;4.23;4.00;;;;;;;27.40;48.80;101596.06;5013725;28;20522;-44
2023/06/28 11:23:54;;;;;;;4.03;3.77;;;;;;;26.58;51.44;101603.19;5014563;28;20487;-44